sensor_id;sensor_type;location;lat;lon;timestamp;pressure;altitude;pressure_sealevel;temperature;humidity
61109;BME280;46995;55.740;37.402;2023-02-13T00:02:09;99785.97;;;-6.78;83.60
61109;BME280;46995;55.740;37.402;2023-02-13T00:04:35;99776.41;;;-6.67;83.46
61109;BME280;46995;55.740;37.402;2023-02-13T00:07:03;99788.25;;;-6.54;82.83
61109;BME280;46995;55.740;37.402;2023-02-13T00:09:29;99755.66;;;-6.49;82.70
61109;BME280;46995;55.740;37.402;2023-02-13T00:11:54;99748.59;;;-6.38;82.69
61109;BME280;46995;55.740;37.402;2023-02-13T00:14:20;99749.28;;;-6.24;82.86
61109;BME280;46995;55.740;37.402;2023-02-13T00:16:46;99746.53;;;-6.13;82.85
61109;BME280;46995;55.740;37.402;2023-02-13T00:19:12;99743.81;;;-6.03;82.67
61109;BME280;46995;55.740;37.402;2023-02-13T00:21:37;99760.66;;;-5.86;82.11
61109;BME280;46995;55.740;37.402;2023-02-13T00:24:03;99738.44;;;-5.90;82.32
61109;BME280;46995;55.740;37.402;2023-02-13T00:26:30;99740.88;;;-5.84;82.30
61109;BME280;46995;55.740;37.402;2023-02-13T00:28:56;99737.47;;;-5.85;82.32
61109;BME280;46995;55.740;37.402;2023-02-13T00:31:23;99726.41;;;-5.88;82.07
61109;BME280;46995;55.740;37.402;2023-02-13T00:33:49;99746.78;;;-5.79;82.28
61109;BME280;46995;55.740;37.402;2023-02-13T00:36:18;99731.44;;;-5.82;81.47
61109;BME280;46995;55.740;37.402;2023-02-13T00:38:45;99729.66;;;-5.80;82.20
61109;BME280;46995;55.740;37.402;2023-02-13T00:41:11;99696.50;;;-5.92;82.23
61109;BME280;46995;55.740;37.402;2023-02-13T00:43:39;99705.66;;;-5.79;82.06
61109;BME280;46995;55.740;37.402;2023-02-13T00:46:05;99706.22;;;-5.64;82.82
61109;BME280;46995;55.740;37.402;2023-02-13T00:48:32;99687.56;;;-5.75;82.40
61109;BME280;46995;55.740;37.402;2023-02-13T00:50:58;99706.91;;;-5.54;81.95
61109;BME280;46995;55.740;37.402;2023-02-13T00:53:25;99697.25;;;-5.43;82.04
61109;BME280;46995;55.740;37.402;2023-02-13T00:55:51;99705.72;;;-5.36;81.94
61109;BME280;46995;55.740;37.402;2023-02-13T00:58:18;99699.78;;;-5.40;81.62
61109;BME280;46995;55.740;37.402;2023-02-13T01:00:44;99682.94;;;-5.56;80.61
61109;BME280;46995;55.740;37.402;2023-02-13T01:03:13;99709.38;;;-5.49;81.15
61109;BME280;46995;55.740;37.402;2023-02-13T01:05:38;99710.31;;;-5.52;81.57
61109;BME280;46995;55.740;37.402;2023-02-13T01:08:05;99676.31;;;-5.69;81.19
61109;BME280;46995;55.740;37.402;2023-02-13T01:10:32;99701.81;;;-5.57;81.43
61109;BME280;46995;55.740;37.402;2023-02-13T01:12:58;99678.78;;;-5.62;81.52
61109;BME280;46995;55.740;37.402;2023-02-13T01:15:25;99698.22;;;-5.47;81.69
61109;BME280;46995;55.740;37.402;2023-02-13T01:17:54;99677.63;;;-5.47;81.14
61109;BME280;46995;55.740;37.402;2023-02-13T01:20:24;99682.66;;;-5.41;81.44
61109;BME280;46995;55.740;37.402;2023-02-13T01:22:50;99680.00;;;-5.38;81.82
61109;BME280;46995;55.740;37.402;2023-02-13T01:25:16;99676.38;;;-5.28;81.61
61109;BME280;46995;55.740;37.402;2023-02-13T01:27:42;99660.13;;;-5.30;80.89
61109;BME280;46995;55.740;37.402;2023-02-13T01:30:10;99668.41;;;-5.16;81.64
61109;BME280;46995;55.740;37.402;2023-02-13T01:32:39;99643.63;;;-5.20;81.40
61109;BME280;46995;55.740;37.402;2023-02-13T01:35:06;99655.34;;;-5.06;80.51
61109;BME280;46995;55.740;37.402;2023-02-13T01:37:32;99651.03;;;-5.04;81.36
61109;BME280;46995;55.740;37.402;2023-02-13T01:40:00;99629.72;;;-5.13;80.87
61109;BME280;46995;55.740;37.402;2023-02-13T01:42:28;99638.97;;;-5.02;81.04
61109;BME280;46995;55.740;37.402;2023-02-13T01:44:55;99638.91;;;-4.99;81.27
61109;BME280;46995;55.740;37.402;2023-02-13T01:49:48;99613.03;;;-4.93;81.55
61109;BME280;46995;55.740;37.402;2023-02-13T01:52:16;99628.16;;;-4.81;80.88
61109;BME280;46995;55.740;37.402;2023-02-13T01:54:43;99623.09;;;-4.84;81.24
61109;BME280;46995;55.740;37.402;2023-02-13T01:57:15;99619.78;;;-4.89;80.21
61109;BME280;46995;55.740;37.402;2023-02-13T01:59:49;99614.97;;;-5.04;80.76
61109;BME280;46995;55.740;37.402;2023-02-13T02:02:18;99618.50;;;-5.08;80.63
61109;BME280;46995;55.740;37.402;2023-02-13T02:04:46;99599.91;;;-5.23;80.84
61109;BME280;46995;55.740;37.402;2023-02-13T02:07:24;99593.91;;;-5.22;80.95
61109;BME280;46995;55.740;37.402;2023-02-13T02:09:53;99580.25;;;-5.25;81.46
61109;BME280;46995;55.740;37.402;2023-02-13T02:12:33;99595.50;;;-5.16;80.45
61109;BME280;46995;55.740;37.402;2023-02-13T02:15:04;99576.72;;;-5.20;81.08
61109;BME280;46995;55.740;37.402;2023-02-13T02:17:33;99578.25;;;-5.13;80.33
61109;BME280;46995;55.740;37.402;2023-02-13T02:34:03;99578.31;;;-5.14;80.58
61109;BME280;46995;55.740;37.402;2023-02-13T02:36:35;99572.31;;;-5.15;80.59
61109;BME280;46995;55.740;37.402;2023-02-13T02:39:14;99566.31;;;-5.15;81.47
61109;BME280;46995;55.740;37.402;2023-02-13T02:50:22;99519.25;;;-5.22;81.15
61109;BME280;46995;55.740;37.402;2023-02-13T03:01:10;99530.84;;;-5.02;81.70
61109;BME280;46995;55.740;37.402;2023-02-13T03:03:56;99501.72;;;-5.04;81.87
61109;BME280;46995;55.740;37.402;2023-02-13T03:06:46;99517.63;;;-4.89;81.64
61109;BME280;46995;55.740;37.402;2023-02-13T03:09:19;99521.06;;;-4.88;82.37
61109;BME280;46995;55.740;37.402;2023-02-13T03:12:05;99511.66;;;-4.91;82.08
61109;BME280;46995;55.740;37.402;2023-02-13T03:14:51;99506.41;;;-4.86;82.37
61109;BME280;46995;55.740;37.402;2023-02-13T03:17:17;99511.53;;;-4.85;82.22
61109;BME280;46995;55.740;37.402;2023-02-13T03:23:09;99500.22;;;-4.79;83.01
61109;BME280;46995;55.740;37.402;2023-02-13T03:26:04;99496.00;;;-4.82;82.57
61109;BME280;46995;55.740;37.402;2023-02-13T03:28:44;99492.69;;;-4.87;82.47
61109;BME280;46995;55.740;37.402;2023-02-13T03:31:53;99486.72;;;-4.87;82.81
61109;BME280;46995;55.740;37.402;2023-02-13T03:34:30;99479.75;;;-4.84;82.75
61109;BME280;46995;55.740;37.402;2023-02-13T03:37:17;99442.22;;;-4.94;82.28
61109;BME280;46995;55.740;37.402;2023-02-13T03:40:35;99448.84;;;-4.84;83.04
61109;BME280;46995;55.740;37.402;2023-02-13T03:43:27;99436.09;;;-4.88;83.07
61109;BME280;46995;55.740;37.402;2023-02-13T03:45:55;99432.53;;;-4.84;83.04
61109;BME280;46995;55.740;37.402;2023-02-13T03:48:26;99440.84;;;-4.73;83.13
61109;BME280;46995;55.740;37.402;2023-02-13T03:51:38;99444.13;;;-4.68;83.05
61109;BME280;46995;55.740;37.402;2023-02-13T03:54:13;99437.44;;;-4.75;82.30
61109;BME280;46995;55.740;37.402;2023-02-13T03:56:41;99435.69;;;-4.73;83.32
61109;BME280;46995;55.740;37.402;2023-02-13T03:59:33;99442.28;;;-4.63;83.14
61109;BME280;46995;55.740;37.402;2023-02-13T04:02:11;99435.38;;;-4.61;83.05
61109;BME280;46995;55.740;37.402;2023-02-13T04:04:45;99433.50;;;-4.56;83.48
61109;BME280;46995;55.740;37.402;2023-02-13T04:07:16;99440.00;;;-4.43;83.75
61109;BME280;46995;55.740;37.402;2023-02-13T04:10:15;99434.59;;;-4.34;83.25
61109;BME280;46995;55.740;37.402;2023-02-13T04:15:13;99427.59;;;-4.29;83.15
61109;BME280;46995;55.740;37.402;2023-02-13T04:17:48;99428.38;;;-4.25;83.65
61109;BME280;46995;55.740;37.402;2023-02-13T04:20:17;99403.66;;;-4.34;82.90
61109;BME280;46995;55.740;37.402;2023-02-13T04:22:45;99398.34;;;-4.28;83.44
61109;BME280;46995;55.740;37.402;2023-02-13T04:25:13;99397.16;;;-4.16;83.59
61109;BME280;46995;55.740;37.402;2023-02-13T04:27:40;99396.31;;;-4.16;83.75
61109;BME280;46995;55.740;37.402;2023-02-13T04:30:06;99386.94;;;-4.19;83.79
61109;BME280;46995;55.740;37.402;2023-02-13T04:32:32;99368.97;;;-4.22;83.41
61109;BME280;46995;55.740;37.402;2023-02-13T04:34:58;99374.84;;;-4.17;84.13
61109;BME280;46995;55.740;37.402;2023-02-13T04:37:23;99379.31;;;-4.23;84.17
61109;BME280;46995;55.740;37.402;2023-02-13T04:39:49;99381.56;;;-4.11;84.54
61109;BME280;46995;55.740;37.402;2023-02-13T04:42:15;99363.59;;;-4.14;84.46
61109;BME280;46995;55.740;37.402;2023-02-13T04:44:41;99360.03;;;-4.10;84.57
61109;BME280;46995;55.740;37.402;2023-02-13T04:47:06;99349.63;;;-4.07;84.12
61109;BME280;46995;55.740;37.402;2023-02-13T04:49:32;99361.34;;;-3.97;84.34
61109;BME280;46995;55.740;37.402;2023-02-13T04:51:58;99341.09;;;-4.09;83.98
61109;BME280;46995;55.740;37.402;2023-02-13T04:54:24;99323.94;;;-4.10;84.15
61109;BME280;46995;55.740;37.402;2023-02-13T04:56:49;99348.09;;;-3.85;83.79
61109;BME280;46995;55.740;37.402;2023-02-13T04:59:15;99348.97;;;-3.86;83.74
61109;BME280;46995;55.740;37.402;2023-02-13T05:01:41;99344.63;;;-3.84;83.28
61109;BME280;46995;55.740;37.402;2023-02-13T05:04:07;99316.72;;;-3.99;83.57
61109;BME280;46995;55.740;37.402;2023-02-13T05:06:33;99327.50;;;-3.87;83.66
61109;BME280;46995;55.740;37.402;2023-02-13T05:08:58;99325.88;;;-3.89;83.23
61109;BME280;46995;55.740;37.402;2023-02-13T05:11:24;99316.44;;;-3.90;83.77
61109;BME280;46995;55.740;37.402;2023-02-13T05:13:50;99304.59;;;-3.97;83.49
61109;BME280;46995;55.740;37.402;2023-02-13T05:16:15;99317.31;;;-3.91;82.94
61109;BME280;46995;55.740;37.402;2023-02-13T05:18:42;99326.72;;;-3.89;83.89
61109;BME280;46995;55.740;37.402;2023-02-13T05:21:08;99338.47;;;-3.80;82.65
61109;BME280;46995;55.740;37.402;2023-02-13T05:23:52;99329.19;;;-3.86;83.90
61109;BME280;46995;55.740;37.402;2023-02-13T05:26:18;99298.41;;;-3.92;83.67
61109;BME280;46995;55.740;37.402;2023-02-13T05:28:44;99321.97;;;-3.74;83.49
61109;BME280;46995;55.740;37.402;2023-02-13T05:31:28;99313.41;;;-3.76;83.22
61109;BME280;46995;55.740;37.402;2023-02-13T05:33:54;99303.84;;;-3.73;83.26
61109;BME280;46995;55.740;37.402;2023-02-13T05:36:20;99297.88;;;-3.75;83.57
61109;BME280;46995;55.740;37.402;2023-02-13T05:38:46;99300.13;;;-3.64;83.67
61109;BME280;46995;55.740;37.402;2023-02-13T05:41:11;99296.69;;;-3.65;82.33
61109;BME280;46995;55.740;37.402;2023-02-13T05:43:38;99307.56;;;-3.55;81.97
61109;BME280;46995;55.740;37.402;2023-02-13T05:46:05;99312.72;;;-3.55;81.16
61109;BME280;46995;55.740;37.402;2023-02-13T05:48:32;99319.03;;;-3.64;82.54
61109;BME280;46995;55.740;37.402;2023-02-13T05:50:58;99312.09;;;-3.62;82.59
61109;BME280;46995;55.740;37.402;2023-02-13T05:53:24;99297.00;;;-3.74;82.21
61109;BME280;46995;55.740;37.402;2023-02-13T05:55:49;99319.84;;;-3.62;82.52
61109;BME280;46995;55.740;37.402;2023-02-13T05:58:17;99300.28;;;-3.69;82.21
61109;BME280;46995;55.740;37.402;2023-02-13T06:00:44;99304.56;;;-3.68;82.52
61109;BME280;46995;55.740;37.402;2023-02-13T06:03:10;99310.59;;;-3.69;81.90
61109;BME280;46995;55.740;37.402;2023-02-13T06:05:36;99303.75;;;-3.70;82.16
61109;BME280;46995;55.740;37.402;2023-02-13T06:08:01;99304.28;;;-3.60;82.64
61109;BME280;46995;55.740;37.402;2023-02-13T06:10:27;99309.63;;;-3.66;82.86
61109;BME280;46995;55.740;37.402;2023-02-13T06:12:53;99312.09;;;-3.62;82.16
61109;BME280;46995;55.740;37.402;2023-02-13T06:15:19;99299.47;;;-3.71;82.57
61109;BME280;46995;55.740;37.402;2023-02-13T06:17:44;99309.41;;;-3.59;83.40
61109;BME280;46995;55.740;37.402;2023-02-13T06:20:11;99308.53;;;-3.58;82.26
61109;BME280;46995;55.740;37.402;2023-02-13T06:22:37;99306.63;;;-3.53;82.54
61109;BME280;46995;55.740;37.402;2023-02-13T06:25:03;99303.09;;;-3.50;81.89
61109;BME280;46995;55.740;37.402;2023-02-13T06:27:29;99308.00;;;-3.43;82.79
61109;BME280;46995;55.740;37.402;2023-02-13T06:29:54;99296.53;;;-3.34;82.80
61109;BME280;46995;55.740;37.402;2023-02-13T06:32:20;99297.97;;;-3.25;81.63
61109;BME280;46995;55.740;37.402;2023-02-13T06:34:47;99287.53;;;-3.22;82.61
61109;BME280;46995;55.740;37.402;2023-02-13T06:37:15;99286.44;;;-3.15;82.07
61109;BME280;46995;55.740;37.402;2023-02-13T06:39:41;99264.34;;;-3.24;81.88
61109;BME280;46995;55.740;37.402;2023-02-13T06:42:07;99277.66;;;-3.11;82.07
61109;BME280;46995;55.740;37.402;2023-02-13T06:44:32;99263.28;;;-3.18;81.70
61109;BME280;46995;55.740;37.402;2023-02-13T06:46:58;99274.06;;;-3.07;81.58
61109;BME280;46995;55.740;37.402;2023-02-13T06:49:24;99283.53;;;-3.06;81.81
61109;BME280;46995;55.740;37.402;2023-02-13T06:51:50;99258.97;;;-3.18;81.61
61109;BME280;46995;55.740;37.402;2023-02-13T06:54:16;99272.28;;;-3.05;81.73
61109;BME280;46995;55.740;37.402;2023-02-13T06:56:41;99273.31;;;-3.09;82.11
61109;BME280;46995;55.740;37.402;2023-02-13T06:59:07;99248.63;;;-3.18;81.71
61109;BME280;46995;55.740;37.402;2023-02-13T07:01:33;99239.72;;;-3.09;82.32
61109;BME280;46995;55.740;37.402;2023-02-13T07:03:59;99240.50;;;-3.07;82.16
61109;BME280;46995;55.740;37.402;2023-02-13T07:06:24;99249.50;;;-2.94;82.16
61109;BME280;46995;55.740;37.402;2023-02-13T07:08:50;99226.16;;;-3.14;82.17
61109;BME280;46995;55.740;37.402;2023-02-13T07:11:21;99240.97;;;-2.96;83.10
61109;BME280;46995;55.740;37.402;2023-02-13T07:13:48;99237.94;;;-2.84;83.87
61109;BME280;46995;55.740;37.402;2023-02-13T07:16:14;99240.06;;;-2.72;84.82
61109;BME280;46995;55.740;37.402;2023-02-13T07:18:40;99234.78;;;-2.69;83.44
61109;BME280;46995;55.740;37.402;2023-02-13T07:21:07;99233.63;;;-2.62;81.75
61109;BME280;46995;55.740;37.402;2023-02-13T07:23:33;99227.47;;;-2.58;82.85
61109;BME280;46995;55.740;37.402;2023-02-13T07:26:02;99230.56;;;-2.48;81.28
61109;BME280;46995;55.740;37.402;2023-02-13T07:28:28;99206.81;;;-2.58;81.29
61109;BME280;46995;55.740;37.402;2023-02-13T07:30:55;99216.06;;;-2.52;81.42
61109;BME280;46995;55.740;37.402;2023-02-13T07:33:23;99222.09;;;-2.51;82.32
61109;BME280;46995;55.740;37.402;2023-02-13T07:35:50;99220.16;;;-2.46;82.67
61109;BME280;46995;55.740;37.402;2023-02-13T07:38:17;99206.44;;;-2.48;82.40
61109;BME280;46995;55.740;37.402;2023-02-13T07:40:43;99183.84;;;-2.43;82.75
61109;BME280;46995;55.740;37.402;2023-02-13T07:43:09;99192.72;;;-2.29;83.04
61109;BME280;46995;55.740;37.402;2023-02-13T07:45:35;99190.25;;;-2.10;83.06
61109;BME280;46995;55.740;37.402;2023-02-13T07:48:01;99186.09;;;-2.14;82.38
61109;BME280;46995;55.740;37.402;2023-02-13T07:50:28;99179.13;;;-2.12;82.68
61109;BME280;46995;55.740;37.402;2023-02-13T07:52:59;99173.31;;;-1.97;82.37
61109;BME280;46995;55.740;37.402;2023-02-13T07:55:27;99179.94;;;-1.90;82.12
61109;BME280;46995;55.740;37.402;2023-02-13T07:57:53;99191.09;;;-1.67;81.62
61109;BME280;46995;55.740;37.402;2023-02-13T08:00:19;99174.81;;;-1.71;81.28
61109;BME280;46995;55.740;37.402;2023-02-13T08:02:46;99189.75;;;-1.78;80.18
61109;BME280;46995;55.740;37.402;2023-02-13T08:05:12;99179.94;;;-1.90;81.24
61109;BME280;46995;55.740;37.402;2023-02-13T08:07:38;99188.22;;;-1.82;81.38
61109;BME280;46995;55.740;37.402;2023-02-13T08:10:10;99174.63;;;-1.87;82.37
61109;BME280;46995;55.740;37.402;2023-02-13T08:12:56;99175.09;;;-1.77;82.38
61109;BME280;46995;55.740;37.402;2023-02-13T08:15:22;99163.63;;;-1.72;82.24
61109;BME280;46995;55.740;37.402;2023-02-13T08:17:49;99174.91;;;-1.52;81.60
61109;BME280;46995;55.740;37.402;2023-02-13T08:20:16;99175.00;;;-1.55;82.88
61109;BME280;46995;55.740;37.402;2023-02-13T08:22:41;99155.94;;;-1.53;82.39
61109;BME280;46995;55.740;37.402;2023-02-13T08:25:09;99155.84;;;-1.51;82.23
61109;BME280;46995;55.740;37.402;2023-02-13T08:27:35;99155.69;;;-1.47;82.61
61109;BME280;46995;55.740;37.402;2023-02-13T08:30:03;99148.88;;;-1.49;81.57
61109;BME280;46995;55.740;37.402;2023-02-13T08:32:30;99156.31;;;-1.42;81.95
61109;BME280;46995;55.740;37.402;2023-02-13T08:34:56;99125.81;;;-1.55;81.97
61109;BME280;46995;55.740;37.402;2023-02-13T08:37:22;99142.84;;;-1.50;82.72
61109;BME280;46995;55.740;37.402;2023-02-13T08:39:48;99131.66;;;-1.50;83.44
61109;BME280;46995;55.740;37.402;2023-02-13T08:42:14;99116.94;;;-1.50;82.69
61109;BME280;46995;55.740;37.402;2023-02-13T08:44:41;99127.00;;;-1.42;82.68
61109;BME280;46995;55.740;37.402;2023-02-13T08:47:08;99102.19;;;-1.48;82.32
61109;BME280;46995;55.740;37.402;2023-02-13T08:49:34;99099.13;;;-1.37;82.06
61109;BME280;46995;55.740;37.402;2023-02-13T08:52:00;99110.66;;;-1.25;82.34
61109;BME280;46995;55.740;37.402;2023-02-13T08:54:26;99115.31;;;-1.13;82.24
61109;BME280;46995;55.740;37.402;2023-02-13T08:56:53;99093.19;;;-1.39;82.07
61109;BME280;46995;55.740;37.402;2023-02-13T08:59:19;99131.47;;;-1.27;82.53
61109;BME280;46995;55.740;37.402;2023-02-13T09:01:45;99126.94;;;-1.22;82.35
61109;BME280;46995;55.740;37.402;2023-02-13T09:04:12;99123.44;;;-1.21;82.63
61109;BME280;46995;55.740;37.402;2023-02-13T09:06:41;99118.25;;;-1.21;81.90
61109;BME280;46995;55.740;37.402;2023-02-13T09:09:07;99123.44;;;-1.21;82.16
61109;BME280;46995;55.740;37.402;2023-02-13T09:11:33;99112.25;;;-1.21;82.51
61109;BME280;46995;55.740;37.402;2023-02-13T09:13:58;99101.78;;;-1.20;82.61
61109;BME280;46995;55.740;37.402;2023-02-13T09:16:24;99114.63;;;-1.17;81.93
61109;BME280;46995;55.740;37.402;2023-02-13T09:18:51;99097.81;;;-1.27;82.37
61109;BME280;46995;55.740;37.402;2023-02-13T09:21:19;99114.94;;;-1.24;82.55
61109;BME280;46995;55.740;37.402;2023-02-13T09:23:45;99095.97;;;-1.25;83.00
61109;BME280;46995;55.740;37.402;2023-02-13T09:26:13;99102.63;;;-1.19;83.03
61109;BME280;46995;55.740;37.402;2023-02-13T09:28:39;99099.06;;;-1.17;83.27
61109;BME280;46995;55.740;37.402;2023-02-13T09:31:07;99077.34;;;-1.14;82.77
61109;BME280;46995;55.740;37.402;2023-02-13T09:33:33;99045.41;;;-1.15;83.22
61109;BME280;46995;55.740;37.402;2023-02-13T09:36:08;99061.09;;;-0.80;82.65
61109;BME280;46995;55.740;37.402;2023-02-13T09:38:35;99058.53;;;-0.63;82.18
61109;BME280;46995;55.740;37.402;2023-02-13T09:41:05;99045.25;;;-0.57;81.69
61109;BME280;46995;55.740;37.402;2023-02-13T09:43:40;99046.34;;;-0.44;82.67
61109;BME280;46995;55.740;37.402;2023-02-13T09:46:21;99048.34;;;-0.32;82.39
61109;BME280;46995;55.740;37.402;2023-02-13T09:48:51;99045.19;;;-0.21;82.41
61109;BME280;46995;55.740;37.402;2023-02-13T09:51:19;99041.53;;;-0.17;81.84
61109;BME280;46995;55.740;37.402;2023-02-13T09:53:48;99041.91;;;-0.08;81.35
61109;BME280;46995;55.740;37.402;2023-02-13T09:56:21;99034.13;;;-0.25;82.13
61109;BME280;46995;55.740;37.402;2023-02-13T09:58:57;99035.44;;;-0.16;81.04
61109;BME280;46995;55.740;37.402;2023-02-13T10:01:31;99025.59;;;-0.27;81.13
61109;BME280;46995;55.740;37.402;2023-02-13T10:06:38;99035.19;;;-0.12;81.97
61109;BME280;46995;55.740;37.402;2023-02-13T10:17:39;99025.84;;;0.02;82.04
61109;BME280;46995;55.740;37.402;2023-02-13T10:22:50;99007.44;;;0.06;81.28
61109;BME280;46995;55.740;37.402;2023-02-13T10:25:36;99006.88;;;0.17;80.95
61109;BME280;46995;55.740;37.402;2023-02-13T10:28:11;98999.25;;;0.14;81.85
61109;BME280;46995;55.740;37.402;2023-02-13T10:30:48;99010.00;;;0.23;81.69
61109;BME280;46995;55.740;37.402;2023-02-13T10:36:00;99014.22;;;0.26;81.99
61109;BME280;46995;55.740;37.402;2023-02-13T10:38:31;99007.81;;;0.16;82.28
61109;BME280;46995;55.740;37.402;2023-02-13T10:46:45;98995.66;;;0.16;82.74
61109;BME280;46995;55.740;37.402;2023-02-13T11:03:02;98955.72;;;0.19;82.61
61109;BME280;46995;55.740;37.402;2023-02-13T11:05:38;98955.41;;;0.25;82.88
61109;BME280;46995;55.740;37.402;2023-02-13T11:10:44;98922.75;;;0.21;82.62
61109;BME280;46995;55.740;37.402;2023-02-13T11:15:55;98934.97;;;0.34;82.41
61109;BME280;46995;55.740;37.402;2023-02-13T11:18:22;98941.59;;;0.40;82.60
61109;BME280;46995;55.740;37.402;2023-02-13T11:21:04;98928.94;;;0.34;82.30
61109;BME280;46995;55.740;37.402;2023-02-13T11:26:07;98938.06;;;0.41;82.94
61109;BME280;46995;55.740;37.402;2023-02-13T11:28:47;98927.50;;;0.28;82.80
61109;BME280;46995;55.740;37.402;2023-02-13T11:31:23;98934.63;;;0.25;83.24
61109;BME280;46995;55.740;37.402;2023-02-13T11:33:51;98939.81;;;0.25;83.28
61109;BME280;46995;55.740;37.402;2023-02-13T11:36:24;98915.53;;;0.26;82.95
61109;BME280;46995;55.740;37.402;2023-02-13T11:39:06;98891.75;;;0.18;83.08
61109;BME280;46995;55.740;37.402;2023-02-13T11:41:43;98901.53;;;0.28;83.42
61109;BME280;46995;55.740;37.402;2023-02-13T11:44:24;98904.13;;;0.44;83.28
61109;BME280;46995;55.740;37.402;2023-02-13T11:46:52;98902.13;;;0.49;83.41
61109;BME280;46995;55.740;37.402;2023-02-13T11:49:21;98893.59;;;0.47;82.43
61109;BME280;46995;55.740;37.402;2023-02-13T11:51:49;98884.19;;;0.45;82.50
61109;BME280;46995;55.740;37.402;2023-02-13T11:54:26;98889.91;;;0.51;82.65
61109;BME280;46995;55.740;37.402;2023-02-13T11:56:59;98876.72;;;0.54;82.87
61109;BME280;46995;55.740;37.402;2023-02-13T11:59:31;98884.69;;;0.67;82.31
61109;BME280;46995;55.740;37.402;2023-02-13T12:04:39;98875.63;;;0.58;82.63
61109;BME280;46995;55.740;37.402;2023-02-13T12:07:37;98878.47;;;0.69;81.56
61109;BME280;46995;55.740;37.402;2023-02-13T12:10:28;98865.88;;;0.77;82.74
61109;BME280;46995;55.740;37.402;2023-02-13T12:13:12;98853.97;;;0.73;81.66
61109;BME280;46995;55.740;37.402;2023-02-13T12:15:38;98865.03;;;0.77;82.16
61109;BME280;46995;55.740;37.402;2023-02-13T12:18:27;98869.41;;;0.76;81.71
61109;BME280;46995;55.740;37.402;2023-02-13T12:21:10;98866.22;;;0.71;82.54
61109;BME280;46995;55.740;37.402;2023-02-13T12:23:47;98866.50;;;0.67;82.77
61109;BME280;46995;55.740;37.402;2023-02-13T12:29:11;98867.34;;;0.67;82.54
61109;BME280;46995;55.740;37.402;2023-02-13T12:34:24;98860.53;;;0.65;82.89
61109;BME280;46995;55.740;37.402;2023-02-13T12:39:40;98843.72;;;0.56;83.01
61109;BME280;46995;55.740;37.402;2023-02-13T12:45:27;98848.97;;;0.70;82.64
61109;BME280;46995;55.740;37.402;2023-02-13T12:57:11;98828.75;;;0.75;83.72
61109;BME280;46995;55.740;37.402;2023-02-13T12:59:54;98785.25;;;0.49;83.35
61109;BME280;46995;55.740;37.402;2023-02-13T13:05:16;98795.31;;;0.69;82.71
61109;BME280;46995;55.740;37.402;2023-02-13T13:10:58;98807.38;;;0.70;83.64
61109;BME280;46995;55.740;37.402;2023-02-13T13:16:23;98795.31;;;0.69;83.54
61109;BME280;46995;55.740;37.402;2023-02-13T13:27:03;98806.63;;;0.68;84.02
61109;BME280;46995;55.740;37.402;2023-02-13T13:29:47;98810.91;;;0.69;84.19
61109;BME280;46995;55.740;37.402;2023-02-13T13:32:15;98800.00;;;0.78;84.43
61109;BME280;46995;55.740;37.402;2023-02-13T13:34:42;98797.00;;;0.70;84.42
61109;BME280;46995;55.740;37.402;2023-02-13T13:37:47;98805.56;;;0.72;84.22
61109;BME280;46995;55.740;37.402;2023-02-13T13:40:30;98800.69;;;0.66;84.74
61109;BME280;46995;55.740;37.402;2023-02-13T13:43:07;98784.88;;;0.55;84.70
61109;BME280;46995;55.740;37.402;2023-02-13T13:48:24;98788.97;;;0.59;85.68
61109;BME280;46995;55.740;37.402;2023-02-13T13:50:55;98783.06;;;0.57;85.70
61109;BME280;46995;55.740;37.402;2023-02-13T13:53:21;98767.06;;;0.49;85.65
61109;BME280;46995;55.740;37.402;2023-02-13T14:01:20;98786.31;;;0.61;86.30
61109;BME280;46995;55.740;37.402;2023-02-13T14:11:52;98778.59;;;0.59;86.08
61109;BME280;46995;55.740;37.402;2023-02-13T14:16:55;98756.13;;;0.58;86.61
61109;BME280;46995;55.740;37.402;2023-02-13T14:19:39;98735.88;;;0.49;86.77
61109;BME280;46995;55.740;37.402;2023-02-13T14:22:32;98757.81;;;0.59;86.40
61109;BME280;46995;55.740;37.402;2023-02-13T14:25:01;98749.44;;;0.54;86.28
61109;BME280;46995;55.740;37.402;2023-02-13T14:27:36;98746.84;;;0.54;86.71
61109;BME280;46995;55.740;37.402;2023-02-13T14:30:25;98737.75;;;0.47;86.74
61109;BME280;46995;55.740;37.402;2023-02-13T14:32:52;98739.59;;;0.45;86.46
61109;BME280;46995;55.740;37.402;2023-02-13T14:35:24;98746.28;;;0.49;86.86
61109;BME280;46995;55.740;37.402;2023-02-13T14:38:20;98733.75;;;0.41;86.88
61109;BME280;46995;55.740;37.402;2023-02-13T14:40:49;98722.88;;;0.35;86.80
61109;BME280;46995;55.740;37.402;2023-02-13T14:43:38;98740.34;;;0.47;87.09
61109;BME280;46995;55.740;37.402;2023-02-13T14:49:10;98719.16;;;0.39;86.89
61109;BME280;46995;55.740;37.402;2023-02-13T14:51:50;98716.00;;;0.34;87.13
61109;BME280;46995;55.740;37.402;2023-02-13T14:54:32;98725.69;;;0.46;86.77
61109;BME280;46995;55.740;37.402;2023-02-13T14:57:51;98708.78;;;0.39;86.80
61109;BME280;46995;55.740;37.402;2023-02-13T15:00:25;98717.78;;;0.48;86.88
61109;BME280;46995;55.740;37.402;2023-02-13T15:02:55;98710.47;;;0.40;87.21
61109;BME280;46995;55.740;37.402;2023-02-13T15:05:30;98675.00;;;0.25;87.27
61109;BME280;46995;55.740;37.402;2023-02-13T15:08:05;98683.00;;;0.36;87.57
61109;BME280;46995;55.740;37.402;2023-02-13T15:10:49;98692.50;;;0.51;87.00
61109;BME280;46995;55.740;37.402;2023-02-13T15:13:23;98684.50;;;0.54;87.15
61109;BME280;46995;55.740;37.402;2023-02-13T15:16:12;98668.56;;;0.46;87.10
61109;BME280;46995;55.740;37.402;2023-02-13T15:18:44;98657.81;;;0.52;86.58
61109;BME280;46995;55.740;37.402;2023-02-13T15:21:14;98642.22;;;0.52;86.95
61109;BME280;46995;55.740;37.402;2023-02-13T15:23:41;98641.53;;;0.49;86.70
61109;BME280;46995;55.740;37.402;2023-02-13T15:26:18;98656.00;;;0.53;86.55
61109;BME280;46995;55.740;37.402;2023-02-13T15:28:45;98668.38;;;0.63;86.83
61109;BME280;46995;55.740;37.402;2023-02-13T15:31:23;98650.75;;;0.54;86.67
61109;BME280;46995;55.740;37.402;2023-02-13T15:33:50;98656.41;;;0.61;86.69
61109;BME280;46995;55.740;37.402;2023-02-13T15:36:22;98646.94;;;0.60;87.00
61109;BME280;46995;55.740;37.402;2023-02-13T15:38:58;98626.63;;;0.52;86.67